createdAt,value
2022-10-02T00:01:51.999Z,94814.72
2022-10-02T00:04:46.008Z,94813.75
2022-10-02T00:07:15.467Z,94818.50
2022-10-02T00:09:53.516Z,94816.53
2022-10-02T00:12:24.535Z,94812.81
2022-10-02T00:14:56.571Z,94813.56
2022-10-02T00:17:26.579Z,94812.84
2022-10-02T00:19:56.758Z,94813.06
2022-10-02T00:22:48.396Z,94812.84
2022-10-02T00:25:40.638Z,94805.09
2022-10-02T00:28:25.400Z,94815.09
2022-10-02T00:31:07.595Z,94812.34
2022-10-02T00:33:43.270Z,94805.09
2022-10-02T00:36:24.204Z,94830.78
2022-10-02T00:39:28.451Z,94828.56
2022-10-02T00:42:13.582Z,94829.81
2022-10-02T00:45:32.337Z,94823.06
2022-10-02T00:48:24.169Z,94827.78
2022-10-02T00:51:13.629Z,94833.81
2022-10-02T00:54:13.146Z,94841.53
2022-10-02T00:57:01.531Z,94843.03
2022-10-02T00:59:56.692Z,94847.00
2022-10-02T01:02:32.222Z,94845.50
2022-10-02T01:05:02.242Z,94845.72
2022-10-02T01:07:29.056Z,94830.75
2022-10-02T01:09:56.078Z,94843.66
2022-10-02T01:12:23.949Z,94833.44
2022-10-02T01:14:50.559Z,94827.69
2022-10-02T01:17:25.419Z,94847.91
2022-10-02T01:19:52.670Z,94845.88
2022-10-02T01:22:45.657Z,94839.81
2022-10-02T01:25:12.684Z,94834.78
2022-10-02T01:27:39.729Z,94838.31
2022-10-02T01:30:20.682Z,94824.81
2022-10-02T01:32:52.491Z,94842.22
2022-10-02T01:35:22.352Z,94839.78
2022-10-02T01:37:51.324Z,94823.38
2022-10-02T01:40:28.826Z,94851.63
2022-10-02T01:43:00.565Z,94859.53
2022-10-02T01:45:44.119Z,94858.78
2022-10-02T01:48:16.705Z,94853.84
2022-10-02T01:51:13.264Z,94848.06
2022-10-02T01:53:47.522Z,94851.75
2022-10-02T01:56:46.157Z,94867.50
2022-10-02T01:59:31.710Z,94864.19
2022-10-02T02:02:23.462Z,94858.41
2022-10-02T02:05:02.086Z,94865.78
2022-10-02T02:07:35.768Z,94863.81
2022-10-02T02:10:25.373Z,94868.78
2022-10-02T02:13:10.405Z,94874.19
2022-10-02T02:15:43.682Z,94888.31
2022-10-02T02:18:34.330Z,94894.28
2022-10-02T02:21:09.973Z,94896.78
2022-10-02T02:23:39.286Z,94902.28
2022-10-02T02:26:12.415Z,94891.56
2022-10-02T02:28:48.791Z,94909.72
2022-10-02T02:31:21.064Z,94905.41
2022-10-02T02:33:53.082Z,94905.91
2022-10-02T02:36:24.302Z,94917.69
2022-10-02T02:39:01.326Z,94913.38
2022-10-02T02:41:33.135Z,94908.22
2022-10-02T02:44:10.373Z,94918.09
2022-10-02T02:47:04.823Z,94903.16
2022-10-02T02:49:44.708Z,94918.84
2022-10-02T02:52:18.545Z,94925.75
2022-10-02T02:54:58.080Z,94928.50
2022-10-02T02:57:30.244Z,94937.22
2022-10-02T02:59:58.736Z,94933.88
2022-10-02T03:02:25.470Z,94932.97
2022-10-02T03:04:52.302Z,94941.81
2022-10-02T03:07:19.475Z,94945.59
2022-10-02T03:10:06.317Z,94944.41
2022-10-02T03:12:59.455Z,94954.34
2022-10-02T03:15:26.588Z,94953.38
2022-10-02T03:18:20.764Z,94965.84
2022-10-02T03:20:50.399Z,94979.88
2022-10-02T03:23:22.626Z,94967.53
2022-10-02T03:26:01.848Z,94982.06
2022-10-02T03:28:54.335Z,94984.88
2022-10-02T03:31:22.143Z,94979.72
2022-10-02T03:33:51.062Z,94960.06
2022-10-02T03:36:18.174Z,94976.50
2022-10-02T03:38:53.432Z,94986.56
2022-10-02T03:41:32.893Z,94964.47
2022-10-02T03:43:59.615Z,94971.63
2022-10-02T03:46:26.359Z,94957.47
2022-10-02T03:48:53.164Z,94978.34
2022-10-02T03:51:19.719Z,94988.88
2022-10-02T03:53:46.768Z,94997.38
2022-10-02T03:57:01.457Z,95008.06
2022-10-02T04:00:01.555Z,95009.50
2022-10-02T04:02:51.516Z,95016.34
2022-10-02T04:05:33.943Z,95010.38
2022-10-02T04:08:08.368Z,95012.16
2022-10-02T04:11:05.825Z,95020.66
2022-10-02T04:13:40.410Z,95021.34
2022-10-02T04:16:14.975Z,95038.50
2022-10-02T04:19:02.987Z,95046.31
2022-10-02T04:21:56.636Z,95045.31
2022-10-02T04:24:52.175Z,95048.00
2022-10-02T04:27:26.005Z,95041.66
2022-10-02T04:30:06.272Z,95035.16
2022-10-02T04:32:35.149Z,95057.16
2022-10-02T04:35:06.493Z,95049.97
2022-10-02T04:37:53.725Z,95063.44
2022-10-02T04:40:23.306Z,95072.47
2022-10-02T04:43:24.890Z,95069.03
2022-10-02T04:46:12.002Z,95075.22
2022-10-02T04:49:03.107Z,95088.50
2022-10-02T04:52:08.204Z,95103.44
2022-10-02T04:54:48.650Z,95096.19
2022-10-02T04:57:33.835Z,95112.38
2022-10-02T05:00:09.505Z,95107.91
2022-10-02T05:03:01.279Z,95111.97
2022-10-02T05:05:53.295Z,95110.44
2022-10-02T05:08:38.154Z,95096.19
2022-10-02T05:11:27.259Z,95086.09
2022-10-02T05:14:35.794Z,95111.63
2022-10-02T05:17:42.359Z,95115.09
2022-10-02T05:20:17.883Z,95108.16
2022-10-02T05:23:10.904Z,95112.72
2022-10-02T05:25:43.460Z,95117.16
2022-10-02T05:28:30.328Z,95107.56
2022-10-02T05:31:25.061Z,95117.16
2022-10-02T05:33:54.653Z,95112.44
2022-10-02T05:36:35.257Z,95106.09
2022-10-02T05:39:05.053Z,95118.34
2022-10-02T05:41:37.503Z,95118.56
2022-10-02T05:44:24.471Z,95115.44
2022-10-02T05:47:09.822Z,95137.88
2022-10-02T05:49:41.865Z,95141.63
2022-10-02T05:52:24.128Z,95130.91
2022-10-02T05:55:03.601Z,95136.66
2022-10-02T05:57:52.312Z,95146.28
2022-10-02T06:00:40.279Z,95156.38
2022-10-02T06:03:12.867Z,95157.25
2022-10-02T06:05:45.467Z,95144.84
2022-10-02T06:08:16.174Z,95139.09
2022-10-02T06:10:48.691Z,95141.13
2022-10-02T06:13:27.433Z,95166.06
2022-10-02T06:15:57.195Z,95165.41
2022-10-02T06:18:28.295Z,95160.34
2022-10-02T06:21:06.898Z,95170.91
2022-10-02T06:23:36.700Z,95181.97
2022-10-02T06:26:10.969Z,95185.81
2022-10-02T06:28:48.872Z,95175.31
2022-10-02T06:31:27.991Z,95182.25
2022-10-02T06:33:54.769Z,95180.13
2022-10-02T06:37:03.668Z,95183.19
2022-10-02T06:39:48.910Z,95198.16
2022-10-02T06:42:35.663Z,95206.00
2022-10-02T06:45:21.451Z,95222.31
2022-10-02T06:48:16.130Z,95218.31
2022-10-02T06:51:23.526Z,95219.44
2022-10-02T06:54:19.208Z,95223.91
2022-10-02T06:56:53.272Z,95228.50
2022-10-02T06:59:50.759Z,95241.13
2022-10-02T07:02:41.701Z,95247.50
2022-10-02T07:05:53.385Z,95244.00
2022-10-02T07:08:42.950Z,95227.34
2022-10-02T07:11:12.251Z,95249.66
2022-10-02T07:14:12.345Z,95223.91
2022-10-02T07:16:45.460Z,95237.09
2022-10-02T07:19:33.019Z,95229.50
2022-10-02T07:22:25.904Z,95233.34
2022-10-02T07:25:02.266Z,95242.53
2022-10-02T07:27:41.451Z,95233.75
2022-10-02T07:30:12.341Z,95221.38
2022-10-02T07:32:47.714Z,95249.19
2022-10-02T07:35:29.759Z,95249.06
2022-10-02T07:38:08.239Z,95257.38
2022-10-02T07:41:00.191Z,95240.81
2022-10-02T07:43:45.588Z,95249.69
2022-10-02T07:46:40.245Z,95250.19
2022-10-02T07:49:48.743Z,95269.13
2022-10-02T07:52:46.610Z,95264.94
2022-10-02T07:55:21.701Z,95264.19
2022-10-02T07:58:13.807Z,95272.75
2022-10-02T08:00:51.556Z,95276.53
2022-10-02T08:03:55.173Z,95278.56
2022-10-02T08:06:22.206Z,95275.28
2022-10-02T08:09:04.037Z,95277.06
2022-10-02T08:11:49.800Z,95276.81
2022-10-02T08:14:23.022Z,95291.69
2022-10-02T08:16:52.700Z,95291.44
2022-10-02T08:19:36.358Z,95282.88
2022-10-02T08:22:26.511Z,95291.28
2022-10-02T08:25:04.683Z,95281.88
2022-10-02T08:27:53.828Z,95279.75
2022-10-02T08:30:20.585Z,95288.81
2022-10-02T08:32:48.173Z,95298.69
2022-10-02T08:35:19.913Z,95277.63
2022-10-02T08:38:13.072Z,95282.28
2022-10-02T08:41:04.377Z,95285.06
2022-10-02T08:43:37.362Z,95260.81
2022-10-02T08:46:29.433Z,95280.00
2022-10-02T08:49:28.972Z,95266.41
2022-10-02T08:52:16.711Z,95257.66
2022-10-02T08:54:59.414Z,95261.97
2022-10-02T08:57:50.042Z,95264.22
2022-10-02T09:00:25.262Z,95261.00
2022-10-02T09:03:14.416Z,95264.78
2022-10-02T09:06:17.957Z,95263.03
2022-10-02T09:09:00.408Z,95251.47
2022-10-02T09:11:39.305Z,95272.72
2022-10-02T09:14:22.092Z,95263.66
2022-10-02T09:17:05.704Z,95263.47
2022-10-02T09:19:51.445Z,95270.28
2022-10-02T09:22:36.962Z,95270.06
2022-10-02T09:25:22.744Z,95249.75
2022-10-02T09:28:14.365Z,95264.03
2022-10-02T09:31:03.833Z,95274.56
2022-10-02T09:33:45.495Z,95259.78
2022-10-02T09:36:26.775Z,95275.56
2022-10-02T09:39:35.418Z,95275.56
2022-10-02T09:42:43.446Z,95260.06
2022-10-02T09:45:25.252Z,95266.59
2022-10-02T09:48:13.444Z,95269.06
2022-10-02T09:51:16.613Z,95266.56
2022-10-02T09:54:23.626Z,95277.06
2022-10-02T09:57:17.916Z,95250.28
2022-10-02T09:59:58.412Z,95270.78
2022-10-02T10:02:46.960Z,95263.25
2022-10-02T10:05:55.674Z,95245.94
2022-10-02T10:09:03.650Z,95237.22
2022-10-02T10:11:36.596Z,95265.75
2022-10-02T10:14:21.582Z,95264.50
2022-10-02T10:16:57.283Z,95252.25
2022-10-02T10:20:02.498Z,95263.00
2022-10-02T10:22:49.082Z,95258.03
2022-10-02T10:25:30.156Z,95260.28
2022-10-02T10:28:21.901Z,95263.09
2022-10-02T10:30:57.589Z,95264.56
2022-10-02T10:33:34.630Z,95267.34
2022-10-02T10:36:46.900Z,95255.28
2022-10-02T10:39:31.762Z,95268.97
2022-10-02T10:42:25.640Z,95252.13
2022-10-02T10:45:43.596Z,95239.34
2022-10-02T10:48:37.291Z,95246.63
2022-10-02T10:51:30.629Z,95227.84
2022-10-02T10:54:22.940Z,95243.19
2022-10-02T10:56:57.075Z,95247.94
2022-10-02T10:59:54.163Z,95247.88
2022-10-02T11:02:44.101Z,95242.84
2022-10-02T11:05:31.891Z,95232.06
2022-10-02T11:08:33.902Z,95252.00
2022-10-02T11:11:24.377Z,95248.22
2022-10-02T11:14:15.437Z,95256.28
2022-10-02T11:17:19.761Z,95257.03
2022-10-02T11:20:00.010Z,95247.25
2022-10-02T11:22:26.602Z,95243.25
2022-10-02T11:25:28.697Z,95247.19
2022-10-02T11:28:04.016Z,95254.03
2022-10-02T11:31:06.658Z,95258.56
2022-10-02T11:34:01.554Z,95246.53
2022-10-02T11:37:04.003Z,95238.47
2022-10-02T11:39:50.543Z,95242.72
2022-10-02T11:42:38.737Z,95219.16
2022-10-02T11:45:44.454Z,95240.50
2022-10-02T11:48:21.601Z,95238.00
2022-10-02T11:51:10.225Z,95222.69
2022-10-02T11:53:57.807Z,95220.69
2022-10-02T11:56:56.831Z,95236.72
2022-10-02T11:59:32.071Z,95242.25
2022-10-02T12:02:16.255Z,95222.88
2022-10-02T12:04:52.547Z,95232.41
2022-10-02T12:07:45.184Z,95228.38
2022-10-02T12:10:28.310Z,95224.69
2022-10-02T12:13:16.424Z,95232.88
2022-10-02T12:15:56.247Z,95232.41
2022-10-02T12:18:38.822Z,95229.22
2022-10-02T12:21:39.106Z,95249.50
2022-10-02T12:24:54.989Z,95239.47
2022-10-02T12:27:44.924Z,95239.69
2022-10-02T12:30:25.986Z,95256.78
2022-10-02T12:33:04.165Z,95253.78
2022-10-02T12:35:51.153Z,95253.03
2022-10-02T12:38:20.748Z,95241.97
2022-10-02T12:40:56.118Z,95249.25
2022-10-02T12:43:44.743Z,95247.75
2022-10-02T12:46:49.157Z,95244.69
2022-10-02T12:49:31.580Z,95250.25
2022-10-02T12:52:10.261Z,95247.75
2022-10-02T12:54:58.222Z,95256.06
2022-10-02T12:57:55.107Z,95250.00
2022-10-02T13:00:40.945Z,95236.00
2022-10-02T13:03:23.307Z,95245.50
2022-10-02T13:06:37.355Z,95257.25
2022-10-02T13:09:39.650Z,95248.50
2022-10-02T13:12:31.121Z,95241.22
2022-10-02T13:15:25.150Z,95244.53
2022-10-02T13:17:58.882Z,95263.56
2022-10-02T13:21:06.613Z,95271.84
2022-10-02T13:24:10.820Z,95261.81
2022-10-02T13:27:02.400Z,95269.31
2022-10-02T13:29:35.689Z,95276.84
2022-10-02T13:32:25.733Z,95274.06
2022-10-02T13:34:52.360Z,95272.31
2022-10-02T13:37:37.852Z,95278.06
2022-10-02T13:40:22.207Z,95266.84
2022-10-02T13:42:52.053Z,95268.28
2022-10-02T13:45:23.349Z,95263.75
2022-10-02T13:48:05.743Z,95269.25
2022-10-02T13:50:57.023Z,95258.44
2022-10-02T13:53:39.943Z,95257.28
2022-10-02T13:56:36.734Z,95255.50
2022-10-02T13:59:35.678Z,95262.97
2022-10-02T14:02:34.464Z,95251.13
2022-10-02T14:05:19.048Z,95243.38
2022-10-02T14:08:05.721Z,95247.56
2022-10-02T14:11:05.697Z,95230.28
2022-10-02T14:13:43.851Z,95238.88
2022-10-02T14:16:33.516Z,95234.66
2022-10-02T14:19:24.714Z,95229.13
2022-10-02T14:22:15.644Z,95227.84
2022-10-02T14:25:03.896Z,95221.84
2022-10-02T14:27:58.314Z,95219.56
2022-10-02T14:30:55.170Z,95223.50
2022-10-02T14:33:24.831Z,95232.97
2022-10-02T14:36:15.805Z,95222.53
2022-10-02T14:39:04.184Z,95199.31
2022-10-02T14:41:58.922Z,95212.38
2022-10-02T14:44:39.957Z,95222.50
2022-10-02T14:47:41.820Z,95206.25
2022-10-02T14:50:23.554Z,95187.25
2022-10-02T14:53:47.701Z,95193.75
2022-10-02T14:56:35.972Z,95213.38
2022-10-02T14:59:11.308Z,95218.16
2022-10-02T15:02:02.917Z,95206.66
2022-10-02T15:04:36.073Z,95210.91
2022-10-02T15:07:13.740Z,95208.16
2022-10-02T15:10:02.562Z,95205.91
2022-10-02T15:12:43.912Z,95208.44
2022-10-02T15:15:16.823Z,95207.91
2022-10-02T15:18:03.472Z,95190.88
2022-10-02T15:21:00.642Z,95205.16
2022-10-02T15:23:33.485Z,95209.66
2022-10-02T15:26:21.898Z,95204.91
2022-10-02T15:29:21.498Z,95206.66
2022-10-02T15:32:40.475Z,95204.16
2022-10-02T15:35:25.077Z,95212.91
2022-10-02T15:38:38.945Z,95208.41
2022-10-02T15:45:18.260Z,95221.19
2022-10-02T15:48:18.284Z,95202.56
2022-10-02T15:50:56.989Z,95222.63
2022-10-02T15:54:01.447Z,95224.84
2022-10-02T15:56:50.126Z,95221.22
2022-10-02T15:59:38.293Z,95208.44
2022-10-02T16:02:41.967Z,95211.59
2022-10-02T16:05:42.960Z,95208.03
2022-10-02T16:08:21.743Z,95207.13
2022-10-02T16:11:18.990Z,95206.31
2022-10-02T16:14:11.864Z,95209.00
2022-10-02T16:16:41.928Z,95211.34
2022-10-02T16:19:30.454Z,95198.25
2022-10-02T16:22:18.676Z,95208.44
2022-10-02T16:25:07.050Z,95202.63
2022-10-02T16:28:15.033Z,95203.94
2022-10-02T16:30:50.733Z,95198.81
2022-10-02T16:33:17.547Z,95194.88
2022-10-02T16:35:51.614Z,95193.16
2022-10-02T16:38:37.923Z,95193.16
2022-10-02T16:41:24.629Z,95194.34
2022-10-02T16:44:25.339Z,95199.28
2022-10-02T16:47:00.874Z,95194.78
2022-10-02T16:49:51.662Z,95194.09
2022-10-02T16:52:57.516Z,95207.59
2022-10-02T16:55:37.216Z,95175.38
2022-10-02T16:58:27.395Z,95202.97
2022-10-02T17:01:07.239Z,95195.19
2022-10-02T17:03:45.089Z,95194.25
2022-10-02T17:06:29.504Z,95185.19
2022-10-02T17:09:17.552Z,95189.66
2022-10-02T17:12:21.161Z,95193.91
2022-10-02T17:14:57.038Z,95182.94
2022-10-02T17:17:42.630Z,95189.72
2022-10-02T17:20:26.033Z,95185.41
2022-10-02T17:23:00.513Z,95193.22
2022-10-02T17:25:51.885Z,95190.47
2022-10-02T17:28:32.077Z,95187.94
2022-10-02T17:31:01.823Z,95202.91
2022-10-02T17:33:43.974Z,95201.94
2022-10-02T17:36:22.704Z,95191.84
2022-10-02T17:39:13.850Z,95202.31
2022-10-02T17:41:53.759Z,95184.25
2022-10-02T17:44:25.926Z,95179.03
2022-10-02T17:47:14.315Z,95190.00
2022-10-02T17:50:19.166Z,95188.25
2022-10-02T17:53:20.549Z,95175.69
2022-10-02T17:56:28.566Z,95201.06
2022-10-02T17:59:20.210Z,95189.72
2022-10-02T18:02:06.657Z,95191.31
2022-10-02T18:04:39.375Z,95194.97
2022-10-02T18:07:32.265Z,95192.91
2022-10-02T18:10:17.697Z,95195.97
2022-10-02T18:13:17.036Z,95188.78
2022-10-02T18:16:05.416Z,95191.03
2022-10-02T18:19:14.508Z,95178.22
2022-10-02T18:22:06.916Z,95187.50
2022-10-02T18:24:48.681Z,95176.28
2022-10-02T18:27:50.680Z,95172.81
2022-10-02T18:30:26.163Z,95172.53
2022-10-02T18:33:25.366Z,95177.06
2022-10-02T18:36:40.842Z,95171.38
2022-10-02T18:39:26.117Z,95172.53
2022-10-02T18:41:59.860Z,95180.97
2022-10-02T18:44:52.124Z,95161.22
2022-10-02T18:47:31.490Z,95161.50
2022-10-02T18:50:39.841Z,95169.84
2022-10-02T18:53:20.172Z,95176.72
2022-10-02T18:56:07.644Z,95180.28
2022-10-02T18:58:49.368Z,95179.84
2022-10-02T19:01:35.105Z,95184.13
2022-10-02T19:04:26.515Z,95168.06
2022-10-02T19:07:09.649Z,95176.38
2022-10-02T19:09:36.584Z,95159.47
2022-10-02T19:12:22.203Z,95171.28
2022-10-02T19:14:55.869Z,95172.63
2022-10-02T19:17:26.018Z,95184.97
2022-10-02T19:19:56.304Z,95176.84
2022-10-02T19:22:30.388Z,95181.22
2022-10-02T19:25:08.164Z,95163.81
2022-10-02T19:27:37.587Z,95174.41
2022-10-02T19:30:07.922Z,95172.41
2022-10-02T19:32:41.408Z,95179.88
2022-10-02T19:35:10.965Z,95179.50
2022-10-02T19:37:43.242Z,95169.09
2022-10-02T19:40:19.209Z,95182.91
2022-10-02T19:42:50.085Z,95174.50
2022-10-02T19:45:27.485Z,95183.91
2022-10-02T19:47:59.886Z,95167.69
2022-10-02T19:50:47.341Z,95177.25
2022-10-02T19:53:24.521Z,95180.16
2022-10-02T19:55:57.429Z,95159.41
2022-10-02T19:58:47.100Z,95168.44
2022-10-02T20:01:38.047Z,95164.28
2022-10-02T20:04:06.225Z,95144.28
2022-10-02T20:06:37.726Z,95165.50
2022-10-02T20:09:20.145Z,95155.31
2022-10-02T20:11:51.129Z,95151.94
2022-10-02T20:14:30.431Z,95148.16
2022-10-02T20:17:09.252Z,95143.63
2022-10-02T20:19:45.248Z,95146.66
2022-10-02T20:22:41.467Z,95154.84
2022-10-02T20:25:13.320Z,95159.50
2022-10-02T20:28:05.103Z,95158.44
2022-10-02T20:31:12.634Z,95160.97
2022-10-02T20:33:46.555Z,95160.28
2022-10-02T20:36:19.505Z,95168.25
2022-10-02T20:39:06.906Z,95169.97
2022-10-02T20:41:43.380Z,95172.63
2022-10-02T20:44:12.906Z,95160.00
2022-10-02T20:46:45.868Z,95159.72
2022-10-02T20:49:24.623Z,95152.56
2022-10-02T20:52:22.281Z,95137.34
2022-10-02T20:55:31.208Z,95134.00
2022-10-02T20:58:21.047Z,95144.59
2022-10-02T21:01:23.187Z,95139.75
2022-10-02T21:04:08.375Z,95142.34
2022-10-02T21:06:50.638Z,95153.50
2022-10-02T21:09:43.440Z,95148.94
2022-10-02T21:12:38.026Z,95153.31
2022-10-02T21:15:39.135Z,95147.06
2022-10-02T21:18:18.725Z,95145.38
2022-10-02T21:21:10.187Z,95130.97
2022-10-02T21:24:26.682Z,95126.47
2022-10-02T21:27:06.897Z,95123.47
2022-10-02T21:30:02.818Z,95126.94
2022-10-02T21:32:35.681Z,95129.91
2022-10-02T21:35:46.708Z,95135.69
2022-10-02T21:38:43.328Z,95133.53
2022-10-02T21:41:28.379Z,95126.50
2022-10-02T21:44:19.859Z,95128.81
2022-10-02T21:47:11.386Z,95115.22
2022-10-02T21:50:15.693Z,95110.03
2022-10-02T21:53:17.851Z,95118.72
2022-10-02T21:55:47.659Z,95117.41
2022-10-02T21:58:20.389Z,95117.84
2022-10-02T22:01:21.302Z,95113.50
2022-10-02T22:03:56.731Z,95108.97
2022-10-02T22:07:02.925Z,95112.53
2022-10-02T22:10:03.084Z,95106.28
2022-10-02T22:13:01.304Z,95110.25
2022-10-02T22:15:50.299Z,95106.47
2022-10-02T22:18:42.539Z,95105.88
2022-10-02T22:21:37.425Z,95102.41
2022-10-02T22:24:19.581Z,95100.44
2022-10-02T22:27:31.153Z,95095.47
2022-10-02T22:29:58.949Z,95092.28
2022-10-02T22:32:56.276Z,95088.81
2022-10-02T22:35:51.930Z,95081.50
2022-10-02T22:38:26.025Z,95088.78
2022-10-02T22:40:58.027Z,95090.75
2022-10-02T22:43:48.284Z,95091.19
2022-10-02T22:46:41.552Z,95089.53
2022-10-02T22:49:43.251Z,95089.69
2022-10-02T22:52:21.758Z,95083.47
2022-10-02T22:55:03.811Z,95085.63
2022-10-02T22:57:43.816Z,95073.31
2022-10-02T23:00:19.020Z,95070.31
2022-10-02T23:02:58.953Z,95069.72
2022-10-02T23:05:46.734Z,95077.72
2022-10-02T23:08:48.175Z,95073.78
2022-10-02T23:11:22.296Z,95077.25
2022-10-02T23:14:01.642Z,95067.59
2022-10-02T23:16:35.240Z,95067.44
2022-10-02T23:19:25.526Z,95058.06
2022-10-02T23:22:05.253Z,95056.38
2022-10-02T23:24:38.724Z,95053.66
2022-10-02T23:27:09.454Z,95059.69
2022-10-02T23:29:51.248Z,95056.22
2022-10-02T23:32:40.581Z,95052.44
2022-10-02T23:35:38.623Z,95034.28
2022-10-02T23:38:30.153Z,95041.06
2022-10-02T23:41:47.116Z,95035.75
2022-10-02T23:44:28.790Z,95033.34
2022-10-02T23:46:55.898Z,95046.06
2022-10-02T23:49:32.184Z,95031.28
2022-10-02T23:52:08.297Z,95031.56
2022-10-02T23:54:47.188Z,95034.75
2022-10-02T23:57:27.663Z,95022.66
